Volcano, California
Current Conditions -  °F | °C
As of 4:15 PM on Friday 19 Dec 2014 (Local Time) from KPVF Reporting Station
Overcast Overcast  
Wind Chill: 39°   Ceiling: 3100
Heat Index: 45°   Visibility: 3mi
Dew Point: 41°   Wind: 12mph
Humidity: 87%   Direction: 130°SE
Pressure: 30.14"   Gusts: NA
Location:  38.44°N, 120.63°W
Report Text: KPVF 200015Z AUTO 13010KT 3SM OVC031 07/05 A3014 RMK AO1 P0003
Loading
Personal Weather Stations






























Interactive Weather Map New forecast layout! Learn more

10-Day Weather Forecast

Advertisements
Track Severe Weather on mobile